Terminal Aerodrome Forecast
Issued by NWS

Home | Current Version | Previous Version | Text Only | Print | Product List | Glossary On
Versions: 1 2 3 4 5 6 7 8 9 10 11 12 13 14 15 16 17 18 19 20 21 22 23 24 25 26 27 28 29 30 31 32 33 34 35 36 37 38 39 40 41 42 43 44 45 46 47 48 49 50
000
FTUS45 KGJT 312205 AAB
TAFTEX
TAF AMD
KTEX 312205Z 3122/0118 27010KT 1/2SM SN BKN001 OVC007
     FM312230 27004KT P6SM VCSH SCT005 BKN030
     FM010300 14005KT P6SM SCT015 BKN040
     FM010900 14005KT P6SM VCFG FEW010 SCT040=

USA.gov is the U.S. government's official web portal to all federal, state and local government web resources and services.